createdAt,value
2018-11-11T00:00:45.910Z,1011.61
2018-11-11T00:01:46.058Z,1011.61
2018-11-11T00:02:46.092Z,1011.62
2018-11-11T00:03:47.044Z,1011.58
2018-11-11T00:04:45.590Z,1011.6
2018-11-11T00:05:45.435Z,1011.64
2018-11-11T00:06:45.547Z,1011.63
2018-11-11T00:07:45.797Z,1011.62
2018-11-11T00:08:45.357Z,1011.66
2018-11-11T00:09:45.646Z,1011.69
2018-11-11T00:10:45.651Z,1011.66
2018-11-11T00:11:45.572Z,1011.63
2018-11-11T00:12:45.571Z,1011.73
2018-11-11T00:13:45.540Z,1011.74
2018-11-11T00:14:45.885Z,1011.75
2018-11-11T00:15:45.625Z,1011.76
2018-11-11T00:16:45.423Z,1011.8
2018-11-11T00:17:45.553Z,1011.75
2018-11-11T00:18:45.694Z,1011.74
2018-11-11T00:19:45.498Z,1011.73
2018-11-11T00:20:45.653Z,1011.75
2018-11-11T00:21:46.284Z,1011.71
2018-11-11T00:22:45.587Z,1011.69
2018-11-11T00:23:45.422Z,1011.73
2018-11-11T00:24:45.546Z,1011.71
2018-11-11T00:25:45.411Z,1011.68
2018-11-11T00:26:45.389Z,1011.71
2018-11-11T00:27:45.676Z,1011.66
2018-11-11T00:28:46.133Z,1011.69
2018-11-11T00:29:45.636Z,1011.67
2018-11-11T00:30:45.657Z,1011.64
2018-11-11T00:31:45.679Z,1011.68
2018-11-11T00:32:46.015Z,1011.67
2018-11-11T00:33:45.486Z,1011.69
2018-11-11T00:34:45.669Z,1011.65
2018-11-11T00:35:45.397Z,1011.66
2018-11-11T00:36:45.997Z,1011.72
2018-11-11T00:37:45.741Z,1011.71
2018-11-11T00:38:45.888Z,1011.71
2018-11-11T00:39:46.344Z,1011.66
2018-11-11T00:40:45.674Z,1011.65
2018-11-11T00:41:45.523Z,1011.69
2018-11-11T00:42:45.753Z,1011.69
2018-11-11T00:43:45.676Z,1011.65
2018-11-11T00:44:45.482Z,1011.7
2018-11-11T00:45:45.551Z,1011.7
2018-11-11T00:46:45.717Z,1011.68
2018-11-11T00:47:45.688Z,1011.71
2018-11-11T00:48:45.528Z,1011.71
2018-11-11T00:49:45.491Z,1011.63
2018-11-11T00:50:45.703Z,1011.64
2018-11-11T00:51:45.924Z,1011.62
2018-11-11T00:52:45.737Z,1011.65
2018-11-11T00:53:46.035Z,1011.62
2018-11-11T00:54:45.557Z,1011.63
2018-11-11T00:55:45.655Z,1011.67
2018-11-11T00:56:45.875Z,1011.67
2018-11-11T00:57:45.664Z,1011.69
2018-11-11T00:58:45.373Z,1011.65
2018-11-11T00:59:45.623Z,1011.65
2018-11-11T01:00:45.552Z,1011.66
2018-11-11T01:01:45.740Z,1011.65
2018-11-11T01:02:45.477Z,1011.67
2018-11-11T01:03:45.545Z,1011.71
2018-11-11T01:04:45.651Z,1011.67
2018-11-11T01:05:45.817Z,1011.74
2018-11-11T01:06:45.372Z,1011.71
2018-11-11T01:07:45.575Z,1011.72
2018-11-11T01:08:45.600Z,1011.67
2018-11-11T01:09:45.533Z,1011.76
2018-11-11T01:10:45.693Z,1011.8
2018-11-11T01:11:45.728Z,1011.74
2018-11-11T01:12:46.033Z,1011.74
2018-11-11T01:13:45.660Z,1011.76
2018-11-11T01:14:45.641Z,1011.73
2018-11-11T01:15:45.567Z,1011.73
2018-11-11T01:16:45.634Z,1011.71
2018-11-11T01:17:45.691Z,1011.73
2018-11-11T01:18:45.874Z,1011.75
2018-11-11T01:19:45.918Z,1011.78
2018-11-11T01:20:45.454Z,1011.81
2018-11-11T01:21:45.816Z,1011.75
2018-11-11T01:22:46.241Z,1011.82
2018-11-11T01:23:45.950Z,1011.78
2018-11-11T01:24:45.835Z,1011.82
2018-11-11T01:25:45.734Z,1011.83
2018-11-11T01:26:45.770Z,1011.88
2018-11-11T01:27:45.489Z,1011.95
2018-11-11T01:28:45.932Z,1011.98
2018-11-11T01:29:45.976Z,1012
2018-11-11T01:30:45.628Z,1012
2018-11-11T01:31:45.438Z,1012.01
2018-11-11T01:32:45.686Z,1012.07
2018-11-11T01:33:45.896Z,1012.09
2018-11-11T01:34:45.394Z,1012.09
2018-11-11T01:35:45.575Z,1012.08
2018-11-11T01:36:45.541Z,1012.13
2018-11-11T01:37:45.376Z,1012.15
2018-11-11T01:38:45.584Z,1012.13
2018-11-11T01:39:45.591Z,1012.1
2018-11-11T01:40:45.577Z,1012.11
2018-11-11T01:41:45.607Z,1012.08
2018-11-11T01:42:46.446Z,1012.11
2018-11-11T01:43:45.527Z,1012.01
2018-11-11T01:44:45.481Z,1012.07
2018-11-11T01:45:45.505Z,1012.02
2018-11-11T01:46:45.376Z,1012.04
2018-11-11T01:47:45.930Z,1012.06
2018-11-11T01:48:45.455Z,1012.05
2018-11-11T01:49:45.569Z,1012.05
2018-11-11T01:50:45.608Z,1012.11
2018-11-11T01:51:45.547Z,1012.16
2018-11-11T01:52:45.485Z,1012.15
2018-11-11T01:53:45.427Z,1012.13
2018-11-11T01:54:45.532Z,1012.11
2018-11-11T01:55:45.563Z,1012.07
2018-11-11T01:56:45.606Z,1012.1
2018-11-11T01:57:45.636Z,1012.14
2018-11-11T01:58:45.612Z,1012.05
2018-11-11T01:59:46.031Z,1012.03
2018-11-11T02:00:45.467Z,1011.98
2018-11-11T02:01:45.554Z,1011.96
2018-11-11T02:02:45.739Z,1011.93
2018-11-11T02:03:45.819Z,1011.96
2018-11-11T02:04:45.833Z,1011.93
2018-11-11T02:05:45.511Z,1011.94
2018-11-11T02:06:45.415Z,1011.9
2018-11-11T02:07:45.619Z,1011.93
2018-11-11T02:08:45.605Z,1011.95
2018-11-11T02:09:46.105Z,1011.94
2018-11-11T02:10:45.385Z,1011.93
2018-11-11T02:11:45.396Z,1012.02
2018-11-11T02:12:45.647Z,1011.97
2018-11-11T02:13:45.696Z,1011.97
2018-11-11T02:14:45.642Z,1012
2018-11-11T02:15:45.467Z,1012
2018-11-11T02:16:45.804Z,1012
2018-11-11T02:17:46.058Z,1011.96
2018-11-11T02:18:45.559Z,1011.89
2018-11-11T02:19:45.303Z,1011.89
2018-11-11T02:20:45.443Z,1011.9
2018-11-11T02:21:45.930Z,1011.85
2018-11-11T02:22:46.084Z,1011.87
2018-11-11T02:23:45.662Z,1011.89
2018-11-11T02:24:45.687Z,1011.84
2018-11-11T02:25:45.792Z,1011.89
2018-11-11T02:26:45.636Z,1011.9
2018-11-11T02:27:45.697Z,1011.85
2018-11-11T02:28:45.401Z,1011.85
2018-11-11T02:29:45.401Z,1011.85
2018-11-11T02:30:45.675Z,1011.85
2018-11-11T02:31:45.697Z,1011.83
2018-11-11T02:32:45.490Z,1011.82
2018-11-11T02:33:45.713Z,1011.83
2018-11-11T02:34:45.440Z,1011.84
2018-11-11T02:35:45.960Z,1011.9
2018-11-11T02:36:45.654Z,1011.94
2018-11-11T02:37:46.460Z,1011.95
2018-11-11T02:38:45.425Z,1011.95
2018-11-11T02:39:45.992Z,1011.86
2018-11-11T02:40:45.863Z,1011.74
2018-11-11T02:41:45.539Z,1011.77
2018-11-11T02:42:45.661Z,1011.66
2018-11-11T02:43:45.695Z,1011.68
2018-11-11T02:44:45.684Z,1011.71
2018-11-11T02:45:45.412Z,1011.81
2018-11-11T02:46:45.330Z,1011.82
2018-11-11T02:47:45.787Z,1011.77
2018-11-11T02:48:45.979Z,1011.81
2018-11-11T02:49:45.792Z,1011.85
2018-11-11T02:50:45.447Z,1011.89
2018-11-11T02:51:45.857Z,1011.83
2018-11-11T02:52:45.654Z,1011.89
2018-11-11T02:53:45.712Z,1011.86
2018-11-11T02:54:45.435Z,1011.83
2018-11-11T02:55:45.311Z,1011.8
2018-11-11T02:56:45.413Z,1011.82
2018-11-11T02:57:45.596Z,1011.76
2018-11-11T02:58:45.504Z,1011.7
2018-11-11T02:59:45.821Z,1011.77
2018-11-11T03:00:45.843Z,1011.82
2018-11-11T03:01:45.629Z,1011.76
2018-11-11T03:02:45.660Z,1011.84
2018-11-11T03:03:45.455Z,1011.79
2018-11-11T03:04:45.392Z,1011.77
2018-11-11T03:05:45.686Z,1011.83
2018-11-11T03:06:45.617Z,1011.8
2018-11-11T03:07:45.767Z,1011.82
2018-11-11T03:08:45.807Z,1011.89
2018-11-11T03:09:45.511Z,1011.84
2018-11-11T03:10:45.571Z,1011.91
2018-11-11T03:11:45.412Z,1011.9
2018-11-11T03:12:45.477Z,1011.86
2018-11-11T03:13:45.368Z,1011.9
2018-11-11T03:14:45.542Z,1011.88
2018-11-11T03:15:45.495Z,1011.9
2018-11-11T03:16:45.513Z,1011.9
2018-11-11T03:17:45.752Z,1011.91
2018-11-11T03:18:45.475Z,1011.82
2018-11-11T03:19:45.570Z,1011.78
2018-11-11T03:20:45.672Z,1011.72
2018-11-11T03:21:45.560Z,1011.69
2018-11-11T03:22:45.374Z,1011.7
2018-11-11T03:23:45.399Z,1011.69
2018-11-11T03:24:45.580Z,1011.72
2018-11-11T03:25:45.498Z,1011.72
2018-11-11T03:26:45.657Z,1011.77
2018-11-11T03:27:45.446Z,1011.74
2018-11-11T03:28:45.564Z,1011.66
2018-11-11T03:29:45.487Z,1011.65
2018-11-11T03:30:45.554Z,1011.7
2018-11-11T03:31:45.624Z,1011.72
2018-11-11T03:32:45.636Z,1011.71
2018-11-11T03:33:45.865Z,1011.68
2018-11-11T03:34:45.667Z,1011.69
2018-11-11T03:35:45.537Z,1011.68
2018-11-11T03:36:45.354Z,1011.7
2018-11-11T03:37:45.483Z,1011.71
2018-11-11T03:38:45.454Z,1011.79
2018-11-11T03:39:45.704Z,1011.77
2018-11-11T03:40:45.378Z,1011.78
2018-11-11T03:41:45.426Z,1011.8
2018-11-11T03:42:45.971Z,1011.78
2018-11-11T03:43:45.429Z,1011.75
2018-11-11T03:44:45.629Z,1011.77
2018-11-11T03:45:45.369Z,1011.83
2018-11-11T03:46:45.608Z,1011.83
2018-11-11T03:47:45.749Z,1011.86
2018-11-11T03:48:45.789Z,1011.92
2018-11-11T03:49:45.284Z,1011.99
2018-11-11T03:50:45.494Z,1011.94
2018-11-11T03:51:45.679Z,1011.95
2018-11-11T03:52:45.532Z,1011.96
2018-11-11T03:53:45.585Z,1011.96
2018-11-11T03:54:45.446Z,1012.02
2018-11-11T03:55:45.560Z,1012
2018-11-11T03:56:45.809Z,1011.99
2018-11-11T03:57:45.478Z,1011.98
2018-11-11T03:58:46.338Z,1011.9
2018-11-11T03:59:45.868Z,1011.97
2018-11-11T04:00:45.815Z,1011.98
2018-11-11T04:01:45.472Z,1011.93
2018-11-11T04:02:45.619Z,1011.95
2018-11-11T04:03:45.335Z,1011.94
2018-11-11T04:04:45.860Z,1011.89
2018-11-11T04:05:45.377Z,1011.88
2018-11-11T04:06:45.813Z,1011.83
2018-11-11T04:07:45.456Z,1011.82
2018-11-11T04:08:45.909Z,1011.87
2018-11-11T04:09:45.935Z,1011.76
2018-11-11T04:10:45.429Z,1011.81
2018-11-11T04:11:45.707Z,1011.87
2018-11-11T04:12:45.714Z,1011.85
2018-11-11T04:13:45.960Z,1011.8
2018-11-11T04:14:45.512Z,1011.78
2018-11-11T04:15:45.568Z,1011.7
2018-11-11T04:16:45.543Z,1011.64
2018-11-11T04:17:45.773Z,1011.56
2018-11-11T04:18:45.618Z,1011.59
2018-11-11T04:19:45.452Z,1011.58
2018-11-11T04:20:45.373Z,1011.52
2018-11-11T04:21:45.889Z,1011.51
2018-11-11T04:22:45.547Z,1011.47
2018-11-11T04:23:45.527Z,1011.53
2018-11-11T04:24:45.640Z,1011.56
2018-11-11T04:25:45.347Z,1011.57
2018-11-11T04:26:45.825Z,1011.54
2018-11-11T04:27:45.412Z,1011.5
2018-11-11T04:28:45.555Z,1011.51
2018-11-11T04:29:45.643Z,1011.51
2018-11-11T04:30:45.650Z,1011.38
2018-11-11T04:31:45.688Z,1011.4
2018-11-11T04:32:45.492Z,1011.37
2018-11-11T04:33:45.807Z,1011.37
2018-11-11T04:34:45.356Z,1011.36
2018-11-11T04:35:45.561Z,1011.34
2018-11-11T04:36:45.507Z,1011.32
2018-11-11T04:37:45.455Z,1011.37
2018-11-11T04:38:45.389Z,1011.35
2018-11-11T04:39:45.375Z,1011.33
2018-11-11T04:40:45.575Z,1011.37
2018-11-11T04:41:45.620Z,1011.32
2018-11-11T04:42:45.588Z,1011.31
2018-11-11T04:43:45.333Z,1011.34
2018-11-11T04:44:45.525Z,1011.35
2018-11-11T04:45:45.517Z,1011.35
2018-11-11T04:46:45.767Z,1011.36
2018-11-11T04:47:45.422Z,1011.37
2018-11-11T04:48:45.508Z,1011.39
2018-11-11T04:49:45.679Z,1011.39
2018-11-11T04:50:45.354Z,1011.36
2018-11-11T04:51:45.519Z,1011.44
2018-11-11T04:52:45.911Z,1011.48
2018-11-11T04:53:45.532Z,1011.56
2018-11-11T04:54:45.294Z,1011.59
2018-11-11T04:55:45.644Z,1011.59
2018-11-11T04:56:45.304Z,1011.61
2018-11-11T04:57:45.282Z,1011.6
2018-11-11T04:58:45.554Z,1011.54
2018-11-11T04:59:45.526Z,1011.49
2018-11-11T05:00:45.785Z,1011.47
2018-11-11T05:01:45.302Z,1011.46
2018-11-11T05:02:45.788Z,1011.44
2018-11-11T05:03:45.347Z,1011.42
2018-11-11T05:04:46.260Z,1011.43
2018-11-11T05:05:45.713Z,1011.42
2018-11-11T05:06:45.286Z,1011.43
2018-11-11T05:07:45.652Z,1011.42
2018-11-11T05:08:45.281Z,1011.41
2018-11-11T05:09:45.441Z,1011.41
2018-11-11T05:10:45.654Z,1011.43
2018-11-11T05:11:45.375Z,1011.44
2018-11-11T05:12:45.559Z,1011.42
2018-11-11T05:13:45.671Z,1011.46
2018-11-11T05:14:45.575Z,1011.47
2018-11-11T05:15:45.269Z,1011.45
2018-11-11T05:16:45.559Z,1011.48
2018-11-11T05:17:45.424Z,1011.55
2018-11-11T05:18:45.479Z,1011.51
2018-11-11T05:19:45.274Z,1011.51
2018-11-11T05:20:45.478Z,1011.57
2018-11-11T05:21:46.472Z,1011.53
2018-11-11T05:22:45.655Z,1011.54
2018-11-11T05:23:46.015Z,1011.53
2018-11-11T05:24:45.403Z,1011.55
2018-11-11T05:25:45.488Z,1011.57
2018-11-11T05:26:45.603Z,1011.61
2018-11-11T05:27:45.644Z,1011.61
2018-11-11T05:28:45.649Z,1011.57
2018-11-11T05:29:45.488Z,1011.6
2018-11-11T05:30:45.775Z,1011.59
2018-11-11T05:31:45.721Z,1011.59
2018-11-11T05:32:45.492Z,1011.62
2018-11-11T05:33:45.582Z,1011.66
2018-11-11T05:34:45.516Z,1011.63
2018-11-11T05:35:45.321Z,1011.62
2018-11-11T05:36:45.397Z,1011.68
2018-11-11T05:37:45.548Z,1011.73
2018-11-11T05:38:45.843Z,1011.78
2018-11-11T05:39:45.531Z,1011.77
2018-11-11T05:40:45.338Z,1011.81
2018-11-11T05:41:45.967Z,1011.79
2018-11-11T05:42:46.861Z,1011.76
2018-11-11T05:43:45.818Z,1011.79
2018-11-11T05:44:45.621Z,1011.81
2018-11-11T05:45:45.750Z,1011.77
2018-11-11T05:46:45.248Z,1011.76
2018-11-11T05:47:45.236Z,1011.75
2018-11-11T05:48:45.565Z,1011.73
2018-11-11T05:49:45.496Z,1011.74
2018-11-11T05:50:45.584Z,1011.75
2018-11-11T05:51:45.268Z,1011.73
2018-11-11T05:52:46.011Z,1011.8
2018-11-11T05:53:45.329Z,1011.8
2018-11-11T05:54:45.356Z,1011.83
2018-11-11T05:55:45.525Z,1011.97
2018-11-11T05:56:45.462Z,1012.05
2018-11-11T05:57:45.464Z,1012.09
2018-11-11T05:58:45.439Z,1012.13
2018-11-11T05:59:45.883Z,1012.1
2018-11-11T06:00:45.450Z,1012.16
2018-11-11T06:01:45.685Z,1012.15
2018-11-11T06:02:45.766Z,1012.15
2018-11-11T06:03:45.486Z,1012.14
2018-11-11T06:04:45.256Z,1012.1
2018-11-11T06:05:45.619Z,1012.17
2018-11-11T06:06:45.827Z,1012.17
2018-11-11T06:07:45.426Z,1012.19
2018-11-11T06:08:45.565Z,1012.3
2018-11-11T06:09:45.282Z,1012.34
2018-11-11T06:10:45.539Z,1012.41
2018-11-11T06:11:45.310Z,1012.43
2018-11-11T06:12:45.716Z,1012.44
2018-11-11T06:13:45.593Z,1012.38
2018-11-11T06:14:45.230Z,1012.45
2018-11-11T06:15:45.559Z,1012.6
2018-11-11T06:16:46.083Z,1012.71
2018-11-11T06:17:45.501Z,1012.9
2018-11-11T06:18:45.425Z,1013.11
2018-11-11T06:19:45.423Z,1013.43
2018-11-11T06:20:45.266Z,1013.54
2018-11-11T06:21:45.491Z,1013.59
2018-11-11T06:22:45.506Z,1013.47
2018-11-11T06:23:45.438Z,1013.6
2018-11-11T06:24:45.548Z,1013.62
2018-11-11T06:25:45.400Z,1013.52
2018-11-11T06:26:45.529Z,1013.41
2018-11-11T06:27:45.411Z,1013.51
2018-11-11T06:28:46.016Z,1013.63
2018-11-11T06:29:45.359Z,1013.65
2018-11-11T06:30:45.564Z,1013.66
2018-11-11T06:31:45.280Z,1013.72
2018-11-11T06:32:45.247Z,1013.77
2018-11-11T06:33:45.378Z,1013.71
2018-11-11T06:34:45.671Z,1013.69
2018-11-11T06:35:45.844Z,1013.72
2018-11-11T06:36:45.732Z,1013.71
2018-11-11T06:37:45.601Z,1013.75
2018-11-11T06:38:45.446Z,1013.72
2018-11-11T06:39:45.789Z,1013.73
2018-11-11T06:40:45.744Z,1013.74
2018-11-11T06:41:45.265Z,1013.71
2018-11-11T06:42:45.254Z,1013.76
2018-11-11T06:43:45.761Z,1013.73
2018-11-11T06:44:45.495Z,1013.7
2018-11-11T06:45:45.689Z,1013.68
2018-11-11T06:46:45.731Z,1013.72
2018-11-11T06:47:45.342Z,1013.73
2018-11-11T06:48:45.562Z,1013.75
2018-11-11T06:49:45.652Z,1013.7
2018-11-11T06:50:45.247Z,1013.7
2018-11-11T06:51:45.481Z,1013.66
2018-11-11T06:52:45.468Z,1013.63
2018-11-11T06:53:45.560Z,1013.64
2018-11-11T06:54:45.647Z,1013.6
2018-11-11T06:55:45.688Z,1013.56
2018-11-11T06:56:45.524Z,1013.64
2018-11-11T06:57:45.688Z,1013.63
2018-11-11T06:58:45.694Z,1013.59
2018-11-11T06:59:45.466Z,1013.59
2018-11-11T07:00:45.316Z,1013.54
2018-11-11T07:01:45.649Z,1013.51
2018-11-11T07:02:45.555Z,1013.49
2018-11-11T07:03:45.622Z,1013.35
2018-11-11T07:04:45.957Z,1013.35
2018-11-11T07:05:45.467Z,1013.31
2018-11-11T07:06:45.346Z,1013.27
2018-11-11T07:07:45.249Z,1013.25
2018-11-11T07:08:45.237Z,1013.28
2018-11-11T07:09:45.463Z,1013.28
2018-11-11T07:10:45.571Z,1013.33
2018-11-11T07:11:45.894Z,1013.26
2018-11-11T07:12:45.393Z,1013.25
2018-11-11T07:13:46.088Z,1013.33
2018-11-11T07:14:45.289Z,1013.38
2018-11-11T07:15:45.823Z,1013.41
2018-11-11T07:16:45.251Z,1013.47
2018-11-11T07:17:45.392Z,1013.48
2018-11-11T07:18:45.727Z,1013.51
2018-11-11T07:19:45.483Z,1013.56
2018-11-11T07:20:45.291Z,1013.57
2018-11-11T07:21:45.424Z,1013.63
2018-11-11T07:22:45.851Z,1013.66
2018-11-11T07:23:46.028Z,1013.61
2018-11-11T07:24:45.325Z,1013.65
2018-11-11T07:25:45.201Z,1013.66
2018-11-11T07:26:45.467Z,1013.69
2018-11-11T07:27:45.797Z,1013.73
2018-11-11T07:28:45.708Z,1013.76
2018-11-11T07:29:45.765Z,1013.78
2018-11-11T07:30:45.411Z,1013.77
2018-11-11T07:31:45.839Z,1013.73
2018-11-11T07:32:45.249Z,1013.76
2018-11-11T07:33:45.630Z,1013.74
2018-11-11T07:34:45.242Z,1013.76
2018-11-11T07:35:45.527Z,1013.71
2018-11-11T07:36:45.966Z,1013.69
2018-11-11T07:37:45.308Z,1013.67
2018-11-11T07:38:45.438Z,1013.64
2018-11-11T07:39:45.455Z,1013.7
2018-11-11T07:40:45.476Z,1013.71
2018-11-11T07:41:45.494Z,1013.69
2018-11-11T07:42:45.388Z,1013.77
2018-11-11T07:43:45.223Z,1013.7
2018-11-11T07:44:45.281Z,1013.74
2018-11-11T07:45:45.343Z,1013.78
2018-11-11T07:46:45.328Z,1013.77
2018-11-11T07:47:45.811Z,1013.83
2018-11-11T07:48:45.342Z,1013.84
2018-11-11T07:49:45.374Z,1013.85
2018-11-11T07:50:45.261Z,1013.83
2018-11-11T07:51:45.688Z,1013.84
2018-11-11T07:52:45.328Z,1013.85
2018-11-11T07:53:45.330Z,1013.87
2018-11-11T07:54:45.875Z,1013.81
2018-11-11T07:55:45.486Z,1013.82
2018-11-11T07:56:45.418Z,1013.78
2018-11-11T07:57:45.388Z,1013.86
2018-11-11T07:58:45.435Z,1013.85
2018-11-11T07:59:45.325Z,1013.87
2018-11-11T08:00:45.643Z,1013.9
2018-11-11T08:01:45.958Z,1013.9
2018-11-11T08:02:45.666Z,1013.84
2018-11-11T08:03:45.604Z,1013.9
2018-11-11T08:04:45.645Z,1013.92
2018-11-11T08:05:45.456Z,1013.93
2018-11-11T08:06:45.269Z,1013.99
2018-11-11T08:07:45.349Z,1014.1
2018-11-11T08:08:45.682Z,1014.11
2018-11-11T08:09:45.463Z,1014.15
2018-11-11T08:10:45.806Z,1014.11
2018-11-11T08:11:45.341Z,1014.18
2018-11-11T08:12:45.481Z,1014.14
2018-11-11T08:13:45.421Z,1014.14
2018-11-11T08:14:45.768Z,1014.13
2018-11-11T08:15:45.625Z,1014.13
2018-11-11T08:16:45.626Z,1014.13
2018-11-11T08:17:45.213Z,1014.09
2018-11-11T08:18:46.061Z,1014.15
2018-11-11T08:19:45.296Z,1014.17
2018-11-11T08:20:45.252Z,1014.16
2018-11-11T08:21:45.451Z,1014.15
2018-11-11T08:22:45.415Z,1014.17
2018-11-11T08:23:45.657Z,1014.17
2018-11-11T08:24:45.321Z,1014.11
2018-11-11T08:25:45.346Z,1014.11
2018-11-11T08:26:45.346Z,1014.1
2018-11-11T08:27:45.797Z,1014.14
2018-11-11T08:28:45.685Z,1014.14
2018-11-11T08:29:45.150Z,1014.16
2018-11-11T08:30:45.648Z,1014.17
2018-11-11T08:31:45.664Z,1014.2
2018-11-11T08:32:45.450Z,1014.22
2018-11-11T08:33:45.354Z,1014.25
2018-11-11T08:34:45.570Z,1014.2
2018-11-11T08:35:45.382Z,1014.23
2018-11-11T08:36:45.669Z,1014.24
2018-11-11T08:37:45.512Z,1014.29
2018-11-11T08:38:45.197Z,1014.31
2018-11-11T08:39:45.907Z,1014.34
2018-11-11T08:40:45.349Z,1014.38
2018-11-11T08:41:45.774Z,1014.44
2018-11-11T08:42:45.634Z,1014.39
2018-11-11T08:43:45.632Z,1014.4
2018-11-11T08:44:45.341Z,1014.43
2018-11-11T08:45:45.449Z,1014.44
2018-11-11T08:46:45.549Z,1014.51
2018-11-11T08:47:45.150Z,1014.55
2018-11-11T08:48:45.528Z,1014.53
2018-11-11T08:49:45.388Z,1014.51
2018-11-11T08:50:45.527Z,1014.5
2018-11-11T08:51:45.792Z,1014.54
2018-11-11T08:52:45.605Z,1014.51
2018-11-11T08:53:45.422Z,1014.53
2018-11-11T08:54:45.863Z,1014.59
2018-11-11T08:55:45.329Z,1014.59
2018-11-11T08:56:45.148Z,1014.62
2018-11-11T08:57:45.852Z,1014.64
2018-11-11T08:58:45.330Z,1014.69
2018-11-11T08:59:45.491Z,1014.7
2018-11-11T09:00:45.445Z,1014.75
2018-11-11T09:01:45.327Z,1014.67
2018-11-11T09:02:45.268Z,1014.71
2018-11-11T09:03:45.583Z,1014.77
2018-11-11T09:04:45.428Z,1014.75
2018-11-11T09:05:45.196Z,1014.79
2018-11-11T09:06:45.742Z,1014.78
2018-11-11T09:07:45.599Z,1014.82
2018-11-11T09:08:45.695Z,1014.87
2018-11-11T09:09:45.728Z,1014.86
2018-11-11T09:10:45.535Z,1014.84
2018-11-11T09:11:45.317Z,1014.79
2018-11-11T09:12:45.392Z,1014.86
2018-11-11T09:13:45.230Z,1014.81
2018-11-11T09:14:45.238Z,1014.79
2018-11-11T09:15:45.338Z,1014.82
2018-11-11T09:16:45.351Z,1014.87
2018-11-11T09:17:45.502Z,1014.87
2018-11-11T09:18:45.408Z,1014.88
2018-11-11T09:19:45.235Z,1014.91
2018-11-11T09:20:45.492Z,1014.91
2018-11-11T09:21:45.432Z,1014.86
2018-11-11T09:22:45.292Z,1014.96
2018-11-11T09:23:45.663Z,1014.94
2018-11-11T09:24:45.610Z,1014.91
2018-11-11T09:25:45.618Z,1014.91
2018-11-11T09:26:45.251Z,1014.91
2018-11-11T09:27:45.289Z,1014.9
2018-11-11T09:28:45.541Z,1014.91
2018-11-11T09:29:46.565Z,1014.93
2018-11-11T09:30:45.350Z,1014.88
2018-11-11T09:31:45.618Z,1014.94
2018-11-11T09:32:45.386Z,1014.9
2018-11-11T09:33:45.481Z,1014.91
2018-11-11T09:34:45.318Z,1014.87
2018-11-11T09:35:45.181Z,1014.86
2018-11-11T09:36:45.561Z,1014.89
2018-11-11T09:37:45.520Z,1014.86
2018-11-11T09:38:45.812Z,1014.87
2018-11-11T09:39:45.730Z,1014.91
2018-11-11T09:40:45.235Z,1014.9
2018-11-11T09:41:45.836Z,1014.91
2018-11-11T09:42:45.290Z,1014.93
2018-11-11T09:43:45.227Z,1014.95
2018-11-11T09:44:45.263Z,1014.92
2018-11-11T09:45:45.670Z,1014.91
2018-11-11T09:46:45.420Z,1014.93
2018-11-11T09:47:45.883Z,1014.87
2018-11-11T09:48:45.466Z,1014.87
2018-11-11T09:49:45.361Z,1014.87
2018-11-11T09:50:45.580Z,1014.89
2018-11-11T09:51:45.909Z,1014.86
2018-11-11T09:52:45.883Z,1014.89
2018-11-11T09:53:45.722Z,1014.94
2018-11-11T09:54:45.404Z,1014.94
2018-11-11T09:55:45.814Z,1014.97
2018-11-11T09:56:45.744Z,1014.95
2018-11-11T09:57:45.776Z,1014.99
2018-11-11T09:58:45.782Z,1014.94
2018-11-11T09:59:46.010Z,1014.93
2018-11-11T10:00:45.705Z,1014.96
2018-11-11T10:01:45.624Z,1014.99
2018-11-11T10:02:45.345Z,1015.04
2018-11-11T10:03:45.509Z,1014.98
2018-11-11T10:04:45.893Z,1014.98
2018-11-11T10:05:45.397Z,1014.92
2018-11-11T10:06:46.035Z,1014.95
2018-11-11T10:07:45.980Z,1014.89
2018-11-11T10:08:45.443Z,1014.88
2018-11-11T10:09:45.609Z,1014.88
2018-11-11T10:10:45.186Z,1014.87
2018-11-11T10:11:45.405Z,1014.9
2018-11-11T10:12:45.711Z,1014.84
2018-11-11T10:13:45.370Z,1014.82
2018-11-11T10:14:45.612Z,1014.78
2018-11-11T10:15:45.370Z,1014.76
2018-11-11T10:16:45.323Z,1014.76
2018-11-11T10:17:45.223Z,1014.72
2018-11-11T10:18:45.618Z,1014.78
2018-11-11T10:19:45.637Z,1014.68
2018-11-11T10:20:45.808Z,1014.7
2018-11-11T10:21:45.659Z,1014.63
2018-11-11T10:22:45.219Z,1014.59
2018-11-11T10:23:45.416Z,1014.63
2018-11-11T10:24:45.231Z,1014.6
2018-11-11T10:25:45.379Z,1014.57
2018-11-11T10:26:45.327Z,1014.6
2018-11-11T10:27:45.284Z,1014.57
2018-11-11T10:28:45.612Z,1014.56
2018-11-11T10:29:45.726Z,1014.55
2018-11-11T10:30:45.653Z,1014.58
2018-11-11T10:31:45.395Z,1014.63
2018-11-11T10:32:45.290Z,1014.62
2018-11-11T10:33:45.147Z,1014.61
2018-11-11T10:34:45.521Z,1014.57
2018-11-11T10:35:45.766Z,1014.58
2018-11-11T10:36:45.452Z,1014.56
2018-11-11T10:37:45.272Z,1014.51
2018-11-11T10:38:45.412Z,1014.55
2018-11-11T10:39:45.311Z,1014.58
2018-11-11T10:40:45.763Z,1014.63
2018-11-11T10:41:45.387Z,1014.62
2018-11-11T10:42:45.450Z,1014.64
2018-11-11T10:43:45.241Z,1014.65
2018-11-11T10:44:45.318Z,1014.62
2018-11-11T10:45:45.153Z,1014.64
2018-11-11T10:46:45.598Z,1014.65
2018-11-11T10:47:45.246Z,1014.59
2018-11-11T10:48:45.260Z,1014.5
2018-11-11T10:49:45.228Z,1014.43
2018-11-11T10:50:45.304Z,1014.41
2018-11-11T10:51:45.152Z,1014.42
2018-11-11T10:52:45.370Z,1014.43
2018-11-11T10:53:45.939Z,1014.44
2018-11-11T10:54:45.308Z,1014.48
2018-11-11T10:55:45.377Z,1014.52
2018-11-11T10:56:45.325Z,1014.49
2018-11-11T10:57:45.331Z,1014.46
2018-11-11T10:58:45.465Z,1014.48
2018-11-11T10:59:45.681Z,1014.5
2018-11-11T11:00:45.108Z,1014.42
2018-11-11T11:01:45.356Z,1014.44
2018-11-11T11:02:45.372Z,1014.4
2018-11-11T11:03:45.238Z,1014.4
2018-11-11T11:04:45.494Z,1014.45
2018-11-11T11:05:45.171Z,1014.42
2018-11-11T11:06:45.640Z,1014.43
2018-11-11T11:07:45.537Z,1014.62
2018-11-11T11:08:45.293Z,1014.45
2018-11-11T11:09:45.227Z,1014.6
2018-11-11T11:10:45.744Z,1014.52
2018-11-11T11:11:45.660Z,1014.53
2018-11-11T11:12:45.273Z,1014.5
2018-11-11T11:13:45.993Z,1014.5
2018-11-11T11:14:45.142Z,1014.48
2018-11-11T11:15:45.271Z,1014.54
2018-11-11T11:16:45.759Z,1014.51
2018-11-11T11:17:45.528Z,1014.45
2018-11-11T11:18:45.469Z,1014.41
2018-11-11T11:19:45.699Z,1014.43
2018-11-11T11:20:45.898Z,1014.47
2018-11-11T11:21:45.195Z,1014.46
2018-11-11T11:22:45.777Z,1014.5
2018-11-11T11:23:45.259Z,1014.49
2018-11-11T11:24:45.234Z,1014.5
2018-11-11T11:25:45.647Z,1014.53
2018-11-11T11:26:45.336Z,1014.5
2018-11-11T11:27:45.320Z,1014.53
2018-11-11T11:28:46.057Z,1014.5
2018-11-11T11:29:45.365Z,1014.52
2018-11-11T11:30:45.350Z,1014.49
2018-11-11T11:31:46.712Z,1014.44
2018-11-11T11:32:45.369Z,1014.5
2018-11-11T11:33:45.286Z,1014.5
2018-11-11T11:34:45.536Z,1014.54
2018-11-11T11:35:46.408Z,1014.55
2018-11-11T11:36:45.295Z,1014.47
2018-11-11T11:37:45.548Z,1014.46
2018-11-11T11:38:45.159Z,1014.44
2018-11-11T11:39:45.354Z,1014.53
2018-11-11T11:40:45.606Z,1014.53
2018-11-11T11:41:45.598Z,1014.53
2018-11-11T11:42:45.492Z,1014.54
2018-11-11T11:43:45.310Z,1014.53
2018-11-11T11:44:45.803Z,1014.51
2018-11-11T11:45:45.910Z,1014.51
2018-11-11T11:46:45.619Z,1014.51
2018-11-11T11:47:45.848Z,1014.58
2018-11-11T11:48:45.260Z,1014.52
2018-11-11T11:49:45.376Z,1014.51
2018-11-11T11:50:45.728Z,1014.56
2018-11-11T11:51:45.969Z,1014.52
2018-11-11T11:52:45.447Z,1014.55
2018-11-11T11:53:45.759Z,1014.59
2018-11-11T11:54:45.396Z,1014.58
2018-11-11T11:55:45.435Z,1014.53
2018-11-11T11:56:45.128Z,1014.49
2018-11-11T11:57:45.341Z,1014.56
2018-11-11T11:58:45.633Z,1014.57
2018-11-11T11:59:45.173Z,1014.52
2018-11-11T12:00:45.418Z,1014.52
2018-11-11T12:01:45.512Z,1014.52
2018-11-11T12:02:45.659Z,1014.59
2018-11-11T12:03:45.445Z,1014.6
2018-11-11T12:04:45.295Z,1014.59
2018-11-11T12:05:45.162Z,1014.57
2018-11-11T12:06:45.555Z,1014.55
2018-11-11T12:07:45.592Z,1014.58
2018-11-11T12:08:46.041Z,1014.55